createdAt,value
2022-08-04T00:00:20.222Z,97142.92
2022-08-04T00:03:13.671Z,97146.22
2022-08-04T00:06:00.849Z,97151.70
2022-08-04T00:08:45.147Z,97157.17
2022-08-04T00:11:16.824Z,97159.91
2022-08-04T00:13:58.195Z,97166.75
2022-08-04T00:16:20.054Z,97173.05
2022-08-04T00:18:52.464Z,97177.96
2022-08-04T00:21:22.369Z,97176.59
2022-08-04T00:24:10.701Z,97181.25
2022-08-04T00:26:23.366Z,97182.63
2022-08-04T00:28:54.598Z,97196.87
2022-08-04T00:31:53.746Z,97197.13
2022-08-04T00:33:55.527Z,97201.79
2022-08-04T00:36:25.223Z,97204.53
2022-08-04T00:38:55.015Z,97212.45
2022-08-04T00:41:30.655Z,97211.65
2022-08-04T00:44:39.559Z,97216.56
2022-08-04T00:47:18.394Z,97214.39
2022-08-04T00:50:15.050Z,97220.98
2022-08-04T00:52:50.148Z,97231.64
2022-08-04T00:55:26.860Z,97232.76
2022-08-04T00:58:12.056Z,97233.56
2022-08-04T01:00:45.111Z,97241.23
2022-08-04T01:03:26.805Z,97238.79
2022-08-04T01:06:25.409Z,97240.43
2022-08-04T01:09:06.512Z,97236.64
2022-08-04T01:11:57.640Z,97243.72
2022-08-04T01:14:47.420Z,97244.28
2022-08-04T01:17:32.214Z,97247.58
2022-08-04T01:20:06.278Z,97246.79
2022-08-04T01:22:40.376Z,97251.98
2022-08-04T01:25:17.096Z,97254.16
2022-08-04T01:28:00.244Z,97257.74
2022-08-04T01:30:29.860Z,97268.70
2022-08-04T01:33:07.070Z,97269.27
2022-08-04T01:35:46.615Z,97269.55
2022-08-04T01:38:40.525Z,97260.78
2022-08-04T01:41:11.393Z,97265.18
2022-08-04T01:43:49.517Z,97270.36
2022-08-04T01:46:19.429Z,97271.73
2022-08-04T01:48:49.350Z,97275.59
2022-08-04T01:51:19.136Z,97274.48
2022-08-04T01:53:48.921Z,97284.62
2022-08-04T01:56:18.649Z,97277.78
2022-08-04T01:58:48.458Z,97278.61
2022-08-04T02:01:18.172Z,97283.28
2022-08-04T02:04:21.504Z,97286.84
2022-08-04T02:06:40.352Z,97289.57
2022-08-04T02:09:32.130Z,97293.16
2022-08-04T02:12:15.937Z,97302.44
2022-08-04T02:14:50.772Z,97306.30
2022-08-04T02:17:26.423Z,97311.81
2022-08-04T02:20:14.142Z,97304.95
2022-08-04T02:22:49.661Z,97311.80
2022-08-04T02:25:21.396Z,97315.08
2022-08-04T02:28:19.325Z,97323.00
2022-08-04T02:31:06.240Z,97325.21
2022-08-04T02:33:40.747Z,97327.42
2022-08-04T02:36:13.026Z,97328.22
2022-08-04T02:39:02.859Z,97334.80
2022-08-04T02:41:32.801Z,97321.92
2022-08-04T02:44:07.482Z,97350.66
2022-08-04T02:46:38.988Z,97344.65
2022-08-04T02:49:10.360Z,97348.49
2022-08-04T02:51:44.168Z,97351.48
2022-08-04T02:54:13.857Z,97356.14
2022-08-04T02:56:43.572Z,97360.25
2022-08-04T02:59:13.832Z,97376.39
2022-08-04T03:01:57.980Z,97375.05
2022-08-04T03:04:26.773Z,97381.03
2022-08-04T03:07:19.042Z,97380.77
2022-08-04T03:10:17.319Z,97385.13
2022-08-04T03:12:50.112Z,97384.88
2022-08-04T03:15:50.902Z,97381.87
2022-08-04T03:18:39.735Z,97384.86
2022-08-04T03:21:25.666Z,97382.94
2022-08-04T03:24:19.974Z,97388.41
2022-08-04T03:27:26.362Z,97388.41
2022-08-04T03:30:29.501Z,97388.14
2022-08-04T03:33:11.112Z,97396.36
2022-08-04T03:36:01.913Z,97398.80
2022-08-04T03:38:54.788Z,97402.09
2022-08-04T03:41:51.551Z,97404.00
2022-08-04T03:44:23.380Z,97410.84
2022-08-04T03:47:20.282Z,97417.39
2022-08-04T03:49:55.619Z,97417.39
2022-08-04T03:53:00.421Z,97421.23
2022-08-04T03:55:56.874Z,97410.28
2022-08-04T03:59:00.690Z,97419.05
2022-08-04T04:02:02.385Z,97416.31
2022-08-04T04:04:36.393Z,97418.20
2022-08-04T04:07:38.448Z,97414.91
2022-08-04T04:10:39.743Z,97416.00
2022-08-04T04:13:13.161Z,97422.02
2022-08-04T04:15:55.491Z,97420.10
2022-08-04T04:18:50.061Z,97421.73
2022-08-04T04:21:46.820Z,97427.20
2022-08-04T04:24:52.216Z,97423.38
2022-08-04T04:27:24.713Z,97420.90
2022-08-04T04:30:11.043Z,97418.97
2022-08-04T04:33:03.772Z,97411.88
2022-08-04T04:35:45.204Z,97415.16
2022-08-04T04:38:33.052Z,97403.10
2022-08-04T04:41:23.735Z,97406.39
2022-08-04T04:44:02.059Z,97402.83
2022-08-04T04:46:40.628Z,97407.21
2022-08-04T04:49:32.877Z,97406.09
2022-08-04T04:52:17.269Z,97409.13
2022-08-04T04:54:49.876Z,97416.78
2022-08-04T04:57:51.901Z,97412.67
2022-08-04T04:59:59.597Z,97427.20
2022-08-04T05:02:40.100Z,97418.97
2022-08-04T05:05:29.660Z,97430.73
2022-08-04T05:08:43.358Z,97428.84
2022-08-04T05:11:15.323Z,97427.98
2022-08-04T05:14:37.037Z,97427.48
2022-08-04T05:16:34.434Z,97431.59
2022-08-04T05:19:25.234Z,97431.03
2022-08-04T05:22:00.571Z,97426.36
2022-08-04T05:24:34.952Z,97421.14
2022-08-04T05:27:07.189Z,97424.73
2022-08-04T05:29:43.172Z,97426.38
2022-08-04T05:32:15.094Z,97418.70
2022-08-04T05:34:54.972Z,97414.60
2022-08-04T05:37:28.386Z,97420.33
2022-08-04T05:39:58.464Z,97412.41
2022-08-04T05:42:28.249Z,97413.25
2022-08-04T05:44:58.026Z,97406.39
2022-08-04T05:47:27.767Z,97406.09
2022-08-04T05:50:02.116Z,97406.09
2022-08-04T05:52:28.923Z,97407.75
2022-08-04T05:55:01.718Z,97410.51
2022-08-04T05:57:31.610Z,97416.80
2022-08-04T06:00:10.565Z,97411.05
2022-08-04T06:02:33.929Z,97417.34
2022-08-04T06:05:03.742Z,97410.50
2022-08-04T06:07:33.641Z,97408.56
2022-08-04T06:10:03.474Z,97403.41
2022-08-04T06:12:41.965Z,97402.30
2022-08-04T06:15:14.265Z,97395.45
2022-08-04T06:18:35.171Z,97398.73
2022-08-04T06:20:23.032Z,97391.59
2022-08-04T06:22:53.307Z,97393.83
2022-08-04T06:25:31.009Z,97397.64
2022-08-04T06:28:00.192Z,97391.61
2022-08-04T06:30:30.058Z,97390.78
2022-08-04T06:33:03.326Z,97395.44
2022-08-04T06:35:32.608Z,97389.41
2022-08-04T06:38:03.942Z,97380.67
2022-08-04T06:40:34.517Z,97382.88
2022-08-04T06:43:05.397Z,97381.77
2022-08-04T06:45:36.426Z,97376.28
2022-08-04T06:48:07.124Z,97372.98
2022-08-04T06:51:30.200Z,97364.78
2022-08-04T06:53:12.925Z,97363.19
2022-08-04T06:55:44.595Z,97356.59
2022-08-04T06:58:15.734Z,97344.55
2022-08-04T07:00:46.324Z,97350.54
2022-08-04T07:03:16.162Z,97348.09
2022-08-04T07:05:46.041Z,97350.02
2022-08-04T07:08:15.620Z,97345.39
2022-08-04T07:10:47.201Z,97344.55
2022-08-04T07:13:16.938Z,97345.91
2022-08-04T07:15:49.657Z,97346.43
2022-08-04T07:18:19.681Z,97343.14
2022-08-04T07:20:49.578Z,97348.12
2022-08-04T07:23:20.486Z,97346.76
2022-08-04T07:26:11.600Z,97344.82
2022-08-04T07:28:30.475Z,97347.28
2022-08-04T07:31:00.252Z,97351.91
2022-08-04T07:33:30.023Z,97349.72
2022-08-04T07:36:04.745Z,97348.68
2022-08-04T07:38:31.246Z,97342.09
2022-08-04T07:41:02.270Z,97347.81
2022-08-04T07:43:32.792Z,97352.47
2022-08-04T07:46:02.431Z,97342.06
2022-08-04T07:48:32.361Z,97343.99
2022-08-04T07:51:02.027Z,97341.04
2022-08-04T07:53:53.549Z,97344.84
2022-08-04T07:56:04.208Z,97342.35
2022-08-04T07:58:33.892Z,97347.00
2022-08-04T08:01:06.507Z,97343.44
2022-08-04T08:03:39.699Z,97342.63
2022-08-04T08:06:17.158Z,97345.94
2022-08-04T08:08:41.919Z,97340.73
2022-08-04T08:11:11.990Z,97341.83
2022-08-04T08:13:42.061Z,97332.52
2022-08-04T08:16:16.352Z,97340.16
2022-08-04T08:18:49.657Z,97337.70
2022-08-04T08:21:15.462Z,97338.52
2022-08-04T08:23:45.195Z,97338.56
2022-08-04T08:26:15.123Z,97342.11
2022-08-04T08:28:44.866Z,97342.91
2022-08-04T08:31:20.234Z,97343.45
2022-08-04T08:33:52.991Z,97343.19
2022-08-04T08:36:33.944Z,97342.89
2022-08-04T08:39:04.858Z,97344.28
2022-08-04T08:42:00.198Z,97345.67
2022-08-04T08:44:56.066Z,97345.95
2022-08-04T08:48:05.199Z,97348.13
2022-08-04T08:50:36.474Z,97350.85
2022-08-04T08:53:31.532Z,97344.28
2022-08-04T08:56:15.705Z,97344.55
2022-08-04T08:59:15.322Z,97353.63
2022-08-04T09:02:02.847Z,97351.44
2022-08-04T09:04:59.432Z,97358.83
2022-08-04T09:08:01.929Z,97367.84
2022-08-04T09:10:37.491Z,97355.23
2022-08-04T09:13:13.371Z,97367.28
2022-08-04T09:16:09.725Z,97367.05
2022-08-04T09:18:47.694Z,97368.12
2022-08-04T09:21:29.257Z,97374.69
2022-08-04T09:24:35.517Z,97374.69
2022-08-04T09:26:51.964Z,97380.16
2022-08-04T09:29:49.752Z,97386.45
2022-08-04T09:32:31.365Z,97399.58
2022-08-04T09:35:20.230Z,97391.11
2022-08-04T09:37:56.535Z,97396.88
2022-08-04T09:40:53.040Z,97388.10
2022-08-04T09:43:58.822Z,97391.67
2022-08-04T09:46:29.102Z,97388.94
2022-08-04T09:49:27.180Z,97391.92
2022-08-04T09:52:05.436Z,97392.18
2022-08-04T09:54:37.921Z,97395.20
2022-08-04T09:57:35.858Z,97387.83
2022-08-04T10:00:10.644Z,97389.22
2022-08-04T10:02:45.186Z,97387.58
2022-08-04T10:05:20.466Z,97385.09
2022-08-04T10:08:16.665Z,97392.19
2022-08-04T10:10:54.138Z,97394.66
2022-08-04T10:13:46.137Z,97392.18
2022-08-04T10:16:39.851Z,97401.20
2022-08-04T10:19:21.268Z,97402.31
2022-08-04T10:22:27.455Z,97397.66
2022-08-04T10:25:04.638Z,97399.58
2022-08-04T10:27:40.085Z,97407.23
2022-08-04T10:30:14.035Z,97413.27
2022-08-04T10:33:12.589Z,97401.22
2022-08-04T10:35:51.445Z,97417.11
2022-08-04T10:38:27.285Z,97418.18
2022-08-04T10:41:30.011Z,97422.35
2022-08-04T10:44:05.214Z,97422.62
2022-08-04T10:46:47.213Z,97423.72
2022-08-04T10:49:24.934Z,97422.05
2022-08-04T10:52:17.517Z,97427.27
2022-08-04T10:55:11.196Z,97423.97
2022-08-04T10:57:48.479Z,97429.16
2022-08-04T11:00:23.614Z,97437.38
2022-08-04T11:02:56.353Z,97441.22
2022-08-04T11:05:52.204Z,97440.41
2022-08-04T11:08:31.616Z,97440.41
2022-08-04T11:11:09.953Z,97439.03
2022-08-04T11:13:58.113Z,97443.41
2022-08-04T11:16:33.441Z,97439.59
2022-08-04T11:19:45.270Z,97436.56
2022-08-04T11:22:00.128Z,97430.02
2022-08-04T11:24:46.080Z,97438.23
2022-08-04T11:27:33.730Z,97434.39
2022-08-04T11:30:08.158Z,97441.23
2022-08-04T11:32:43.567Z,97441.23
2022-08-04T11:35:16.367Z,97440.97
2022-08-04T11:38:02.337Z,97444.81
2022-08-04T11:40:34.919Z,97447.81
2022-08-04T11:43:06.281Z,97440.97
2022-08-04T11:45:44.926Z,97443.45
2022-08-04T11:48:17.457Z,97439.61
2022-08-04T11:50:54.472Z,97445.63
2022-08-04T11:53:34.708Z,97455.20
2022-08-04T11:56:07.548Z,97464.23
2022-08-04T11:58:33.353Z,97464.23
2022-08-04T12:01:25.046Z,97465.59
2022-08-04T12:04:18.884Z,97464.23
2022-08-04T12:07:28.473Z,97457.13
2022-08-04T12:09:55.539Z,97458.77
2022-08-04T12:12:30.768Z,97457.13
2022-08-04T12:15:21.446Z,97468.34
2022-08-04T12:18:05.592Z,97470.81
2022-08-04T12:20:41.884Z,97469.45
2022-08-04T12:23:23.816Z,97464.76
2022-08-04T12:25:56.556Z,97466.39
2022-08-04T12:29:11.895Z,97460.66
2022-08-04T12:31:22.455Z,97462.02
2022-08-04T12:34:04.547Z,97455.73
2022-08-04T12:36:33.657Z,97465.34
2022-08-04T12:39:12.061Z,97465.05
2022-08-04T12:41:45.549Z,97464.20
2022-08-04T12:44:32.763Z,97468.31
2022-08-04T12:46:48.134Z,97466.94
2022-08-04T12:49:20.797Z,97471.59
2022-08-04T12:52:07.690Z,97473.25
2022-08-04T12:54:28.993Z,97469.45
2022-08-04T12:57:01.150Z,97477.66
2022-08-04T12:59:30.947Z,97471.34
2022-08-04T13:02:09.427Z,97473.25
2022-08-04T13:04:32.658Z,97465.87
2022-08-04T13:07:05.956Z,97462.56
2022-08-04T13:09:35.987Z,97462.03
2022-08-04T13:12:11.005Z,97457.65
2022-08-04T13:14:46.772Z,97454.92
2022-08-04T13:17:18.191Z,97453.55
2022-08-04T13:19:53.085Z,97468.31
2022-08-04T13:22:30.005Z,97477.34
2022-08-04T13:26:41.690Z,97484.44
2022-08-04T13:27:43.362Z,97485.55
2022-08-04T13:30:04.834Z,97497.61
2022-08-04T13:32:36.522Z,97495.67
2022-08-04T13:35:06.737Z,97498.13
2022-08-04T13:37:37.643Z,97496.48
2022-08-04T13:40:11.352Z,97501.41
2022-08-04T13:42:41.140Z,97503.33
2022-08-04T13:45:11.692Z,97500.33
2022-08-04T13:47:42.243Z,97502.49
2022-08-04T13:50:24.324Z,97507.16
2022-08-04T13:53:00.304Z,97509.90
2022-08-04T13:55:34.912Z,97511.53
2022-08-04T13:58:12.272Z,97521.11
2022-08-04T14:00:50.388Z,97517.55
2022-08-04T14:03:26.446Z,97515.35
2022-08-04T14:06:16.837Z,97530.67
2022-08-04T14:08:49.166Z,97530.67
2022-08-04T14:12:06.196Z,97545.45
2022-08-04T14:13:55.398Z,97545.45
2022-08-04T14:16:25.439Z,97550.64
2022-08-04T14:19:02.663Z,97560.48
2022-08-04T14:21:33.284Z,97582.08
2022-08-04T14:24:03.070Z,97606.14
2022-08-04T14:26:34.610Z,97629.69
2022-08-04T14:29:28.325Z,97646.05
2022-08-04T14:31:55.977Z,97658.63
2022-08-04T14:34:29.133Z,97666.58
2022-08-04T14:37:17.123Z,97664.12
2022-08-04T14:40:19.363Z,97641.43
2022-08-04T14:42:15.969Z,97623.91
2022-08-04T14:44:56.431Z,97631.53
2022-08-04T14:47:51.660Z,97656.72
2022-08-04T14:50:16.993Z,97656.45
2022-08-04T14:52:46.756Z,97659.48
2022-08-04T14:55:24.149Z,97660.85
2022-08-04T14:58:34.000Z,97647.69
2022-08-04T15:00:33.522Z,97655.90
2022-08-04T15:03:10.149Z,97669.03
2022-08-04T15:06:00.772Z,97678.06
2022-08-04T15:08:17.803Z,97677.52
2022-08-04T15:10:47.601Z,97670.42
2022-08-04T15:13:18.770Z,97660.51
2022-08-04T15:16:07.862Z,97649.06
2022-08-04T15:18:20.325Z,97650.16
2022-08-04T15:20:50.071Z,97650.44
2022-08-04T15:23:22.931Z,97656.20
2022-08-04T15:25:55.126Z,97659.99
2022-08-04T15:28:25.422Z,97681.55
2022-08-04T15:30:56.700Z,97702.38
2022-08-04T15:33:33.826Z,97717.14
2022-08-04T15:36:12.012Z,97719.63
2022-08-04T15:38:44.283Z,97723.45
2022-08-04T15:41:23.090Z,97727.52
2022-08-04T15:44:01.518Z,97719.50
2022-08-04T15:46:45.055Z,97738.17
2022-08-04T15:49:26.408Z,97733.83
2022-08-04T15:52:04.513Z,97734.11
2022-08-04T15:54:37.454Z,97732.46
2022-08-04T15:57:08.258Z,97738.78
2022-08-04T16:00:00.870Z,97747.47
2022-08-04T16:02:40.622Z,97745.57
2022-08-04T16:05:33.927Z,97749.41
2022-08-04T16:08:11.480Z,97753.52
2022-08-04T16:10:49.011Z,97755.72
2022-08-04T16:13:25.688Z,97767.51
2022-08-04T16:16:03.290Z,97784.66
2022-08-04T16:18:35.405Z,97786.84
2022-08-04T16:21:06.482Z,97796.99
2022-08-04T16:24:05.864Z,97805.21
2022-08-04T16:26:45.057Z,97810.97
2022-08-04T16:29:35.718Z,97812.80
2022-08-04T16:32:24.369Z,97804.04
2022-08-04T16:35:06.984Z,97804.89
2022-08-04T16:37:43.691Z,97804.36
2022-08-04T16:40:38.799Z,97805.75
2022-08-04T16:43:16.335Z,97800.55
2022-08-04T16:46:05.225Z,97791.22
2022-08-04T16:48:41.080Z,97778.33
2022-08-04T16:51:14.260Z,97747.73
2022-08-04T16:54:03.080Z,97729.73
2022-08-04T16:56:33.728Z,97735.47
2022-08-04T16:59:13.443Z,97738.47
2022-08-04T17:01:56.018Z,97758.44
2022-08-04T17:04:32.478Z,97762.53
2022-08-04T17:07:06.947Z,97768.28
2022-08-04T17:09:35.605Z,97776.50
2022-08-04T17:12:08.453Z,97790.98
2022-08-04T17:14:39.725Z,97790.98
2022-08-04T17:17:14.088Z,97794.20
2022-08-04T17:19:56.588Z,97793.13
2022-08-04T17:22:26.352Z,97803.02
2022-08-04T17:24:56.334Z,97801.66
2022-08-04T17:28:10.862Z,97800.56
2022-08-04T17:29:58.486Z,97809.55
2022-08-04T17:32:28.268Z,97809.24
2022-08-04T17:34:59.240Z,97807.09
2022-08-04T17:37:40.833Z,97806.56
2022-08-04T17:40:18.490Z,97807.13
2022-08-04T17:42:49.951Z,97811.77
2022-08-04T17:47:53.418Z,97808.16
2022-08-04T17:50:33.857Z,97804.08
2022-08-04T17:53:11.940Z,97804.09
2022-08-04T17:55:46.961Z,97799.46
2022-08-04T17:58:22.512Z,97790.19
2022-08-04T18:01:23.814Z,97801.69
2022-08-04T18:03:33.929Z,97796.45
2022-08-04T18:06:15.745Z,97790.39
2022-08-04T18:08:50.281Z,97792.34
2022-08-04T18:11:22.272Z,97781.42
2022-08-04T18:13:57.305Z,97786.09
2022-08-04T18:16:27.778Z,97779.25
2022-08-04T18:19:19.738Z,97783.55
2022-08-04T18:21:59.659Z,97777.83
2022-08-04T18:24:22.326Z,97777.59
2022-08-04T18:26:54.518Z,97780.31
2022-08-04T18:29:31.039Z,97787.72
2022-08-04T18:31:58.136Z,97774.31
2022-08-04T18:34:28.718Z,97777.85
2022-08-04T18:36:59.168Z,97770.21
2022-08-04T18:40:09.886Z,97764.20
2022-08-04T18:42:04.405Z,97754.65
2022-08-04T18:44:51.866Z,97749.45
2022-08-04T18:47:28.850Z,97742.06
2022-08-04T18:50:40.009Z,97745.06
2022-08-04T18:52:15.186Z,97742.34
2022-08-04T18:54:45.001Z,97740.98
2022-08-04T18:57:16.875Z,97733.88
2022-08-04T18:59:48.570Z,97729.52
2022-08-04T19:02:20.233Z,97721.01
2022-08-04T19:04:53.254Z,97731.69
2022-08-04T19:07:30.928Z,97723.23
2022-08-04T19:09:58.556Z,97720.20
2022-08-04T19:12:26.930Z,97719.14
2022-08-04T19:15:09.020Z,97718.03
2022-08-04T19:17:52.842Z,97716.91
2022-08-04T19:20:04.707Z,97711.98
2022-08-04T19:22:35.529Z,97694.77
2022-08-04T19:25:06.200Z,97687.68
2022-08-04T19:27:38.690Z,97686.33
2022-08-04T19:30:11.596Z,97684.11
2022-08-04T19:32:48.197Z,97671.53
2022-08-04T19:35:15.056Z,97678.92
2022-08-04T19:38:01.059Z,97675.09
2022-08-04T19:40:16.138Z,97676.20
2022-08-04T19:42:51.429Z,97676.20
2022-08-04T19:45:20.080Z,97672.35
2022-08-04T19:48:18.248Z,97682.22
2022-08-04T19:50:24.048Z,97671.00
2022-08-04T19:52:57.847Z,97676.21
2022-08-04T19:55:37.535Z,97678.66
2022-08-04T19:58:08.519Z,97675.66
2022-08-04T20:00:39.006Z,97666.89
2022-08-04T20:03:11.317Z,97666.34
2022-08-04T20:05:53.860Z,97660.06
2022-08-04T20:08:14.060Z,97658.14
2022-08-04T20:10:51.119Z,97655.70
2022-08-04T20:13:17.470Z,97652.13
2022-08-04T20:15:57.519Z,97648.31
2022-08-04T20:18:35.661Z,97652.98
2022-08-04T20:20:57.431Z,97642.30
2022-08-04T20:23:48.250Z,97642.30
2022-08-04T20:26:01.869Z,97633.55
2022-08-04T20:28:36.325Z,97622.34
2022-08-04T20:31:18.376Z,97620.42
2022-08-04T20:33:56.611Z,97609.22
2022-08-04T20:36:30.271Z,97598.27
2022-08-04T20:39:04.910Z,97590.07
2022-08-04T20:41:37.109Z,97579.66
2022-08-04T20:44:06.991Z,97582.39
2022-08-04T20:46:43.653Z,97565.42
2022-08-04T20:49:15.891Z,97573.11
2022-08-04T20:51:51.643Z,97558.33
2022-08-04T20:54:26.405Z,97568.16
2022-08-04T20:56:52.800Z,97564.35
2022-08-04T20:59:23.794Z,97561.62
2022-08-04T21:01:54.440Z,97558.59
2022-08-04T21:04:46.475Z,97557.78
2022-08-04T21:07:16.953Z,97548.75
2022-08-04T21:09:56.188Z,97552.04
2022-08-04T21:12:27.290Z,97542.73
2022-08-04T21:14:59.543Z,97545.47
2022-08-04T21:17:58.678Z,97546.84
2022-08-04T21:20:02.452Z,97539.44
2022-08-04T21:22:33.420Z,97542.47
2022-08-04T21:25:03.446Z,97540.00
2022-08-04T21:27:35.712Z,97532.05
2022-08-04T21:30:25.090Z,97523.84
2022-08-04T21:32:42.025Z,97520.59
2022-08-04T21:35:15.407Z,97508.53
2022-08-04T21:37:57.959Z,97510.45
2022-08-04T21:40:32.584Z,97494.85
2022-08-04T21:42:56.970Z,97497.33
2022-08-04T21:45:35.948Z,97493.22
2022-08-04T21:48:02.210Z,97491.30
2022-08-04T21:51:03.124Z,97499.77
2022-08-04T21:53:27.707Z,97497.04
2022-08-04T21:56:04.749Z,97496.52
2022-08-04T21:58:33.035Z,97494.59
2022-08-04T22:01:05.860Z,97490.48
2022-08-04T22:03:52.554Z,97485.02
2022-08-04T22:06:07.594Z,97483.65
2022-08-04T22:08:38.130Z,97485.57
2022-08-04T22:11:33.484Z,97479.84
2022-08-04T22:14:11.542Z,97475.99
2022-08-04T22:16:45.218Z,97474.36
2022-08-04T22:19:16.426Z,97472.70
2022-08-04T22:21:55.735Z,97468.08
2022-08-04T22:24:25.408Z,97468.34
2022-08-04T22:26:57.028Z,97452.47
2022-08-04T22:29:31.182Z,97449.18
2022-08-04T22:31:59.767Z,97449.99
2022-08-04T22:34:32.425Z,97453.02
2022-08-04T22:37:02.311Z,97448.36
2022-08-04T22:39:33.663Z,97452.47
2022-08-04T22:42:04.694Z,97444.52
2022-08-04T22:44:34.992Z,97445.63
2022-08-04T22:47:06.567Z,97447.25
2022-08-04T22:49:37.852Z,97444.77
2022-08-04T22:52:09.903Z,97442.03
2022-08-04T22:54:40.800Z,97436.29
2022-08-04T22:57:10.384Z,97433.55
2022-08-04T22:59:43.206Z,97432.45
2022-08-04T23:02:14.631Z,97428.09
2022-08-04T23:04:44.767Z,97419.33
2022-08-04T23:07:16.962Z,97414.66
2022-08-04T23:09:51.241Z,97411.11
2022-08-04T23:12:26.021Z,97403.45
2022-08-04T23:14:56.637Z,97408.38
2022-08-04T23:17:28.621Z,97395.80
2022-08-04T23:20:01.306Z,97398.80
2022-08-04T23:22:41.942Z,97391.95
2022-08-04T23:25:07.035Z,97385.92
2022-08-04T23:27:43.800Z,97389.20
2022-08-04T23:30:14.121Z,97382.62
2022-08-04T23:32:44.469Z,97381.55
2022-08-04T23:35:16.503Z,97378.00
2022-08-04T23:37:56.246Z,97378.27
2022-08-04T23:40:32.495Z,97386.21
2022-08-04T23:42:49.639Z,97393.31
2022-08-04T23:46:03.936Z,97374.97
2022-08-04T23:48:16.439Z,97370.04
2022-08-04T23:50:23.177Z,97366.48
2022-08-04T23:53:00.542Z,97371.11
2022-08-04T23:55:49.863Z,97373.84
2022-08-04T23:58:28.221Z,97377.11
